Diadema Argentina, Argentina
Current Conditions -  °F | °C
As of 1:00 AM on Wednesday 28 Jan 2015 (Local Time) from SAVC Reporting Station
Broken Clouds Broken Clouds  
Wind Chill: 59°   Ceiling: 10000
Heat Index: 59°   Visibility: 6mi
Dew Point: 45°   Wind: 3mph
Humidity: 59%   Direction: 270°W
Pressure: 29.94"   Gusts: NA
Location:  45.77°S, 67.67°W
Report Text: SAVC 280400Z 27003KT 9999 FEW045 BKN10015/07 Q1014
Loading
Personal Weather Stations






























Interactive Weather Map New forecast layout! Learn more

10-Day Weather Forecast

Advertisements
Track Severe Weather on mobile